Time;durP1;ratioP1;P1;durP2;ratioP2;P2;SDS_P1;SDS_P2;PMS_P1;PMS_P2;Temp;Humidity;BMP_temperature;BMP_pressure;BME280_temperature;BME280_humidity;BME280_pressure;Samples;Min_cycle;Max_cycle;Signal;HPM_P1;HPM_P2
2023/08/29 00:00:04;;;;;;;0.40;0.40;;;;;;;;;;5034576;28;20208;-86
2023/08/29 00:02:40;;;;;;;1.37;1.37;;;;;;;;;;5034980;28;20206;-85
2023/08/29 00:05:09;;;;;;;0.40;0.40;;;;;;;;;;5035045;28;20304;-85
2023/08/29 00:07:38;;;;;;;0.40;0.40;;;;;;;;;;5034770;28;20199;-85
2023/08/29 00:10:07;;;;;;;0.40;0.40;;;;;;;;;;5033857;28;20210;-85
2023/08/29 00:12:35;;;;;;;0.40;0.40;;;;;;;;;;5034855;28;20213;-85
2023/08/29 00:15:05;;;;;;;0.40;0.40;;;;;;;;;;5034634;28;20242;-85
2023/08/29 00:17:35;;;;;;;0.40;0.40;;;;;;;;;;5034305;28;20221;-85
2023/08/29 00:20:03;;;;;;;0.40;0.40;;;;;;;;;;5034221;28;20289;-85
2023/08/29 00:22:31;;;;;;;0.50;0.50;;;;;;;;;;5034751;28;20207;-85
2023/08/29 00:25:00;;;;;;;0.40;0.40;;;;;;;;;;5034453;28;20195;-85
2023/08/29 00:27:28;;;;;;;0.40;0.40;;;;;;;;;;5034295;28;20305;-82
2023/08/29 00:29:57;;;;;;;0.40;0.40;;;;;;;;;;5034664;28;20263;-82
2023/08/29 00:32:25;;;;;;;0.40;0.40;;;;;;;;;;5034646;28;20213;-82
2023/08/29 00:34:55;;;;;;;0.70;0.70;;;;;;;;;;5033795;28;20215;-86
2023/08/29 00:37:24;;;;;;;0.87;0.87;;;;;;;;;;5034071;28;20231;-85
2023/08/29 00:39:52;;;;;;;0.40;0.40;;;;;;;;;;5034142;28;20243;-85
2023/08/29 00:42:20;;;;;;;0.50;0.50;;;;;;;;;;5034261;28;20206;-82
2023/08/29 00:44:49;;;;;;;0.40;0.40;;;;;;;;;;5033616;28;20186;-82
2023/08/29 00:47:18;;;;;;;0.40;0.40;;;;;;;;;;5034273;28;20230;-82
2023/08/29 00:49:46;;;;;;;0.50;0.50;;;;;;;;;;5034114;28;20215;-82
2023/08/29 00:52:16;;;;;;;0.43;0.43;;;;;;;;;;5033693;28;20214;-82
2023/08/29 00:54:44;;;;;;;0.40;0.40;;;;;;;;;;5032441;28;20222;-85
2023/08/29 00:57:13;;;;;;;0.50;0.50;;;;;;;;;;5034138;28;20257;-85
2023/08/29 00:59:42;;;;;;;0.40;0.40;;;;;;;;;;5033818;28;20202;-85
2023/08/29 01:02:10;;;;;;;0.40;0.40;;;;;;;;;;5033244;28;20206;-85
2023/08/29 01:04:39;;;;;;;0.50;0.50;;;;;;;;;;5034070;28;20214;-82
2023/08/29 01:07:07;;;;;;;0.40;0.40;;;;;;;;;;5033828;28;20212;-82
2023/08/29 01:09:37;;;;;;;0.50;0.50;;;;;;;;;;5033618;28;20214;-82
2023/08/29 01:12:09;;;;;;;0.40;0.40;;;;;;;;;;5033672;28;20206;-82
2023/08/29 01:14:42;;;;;;;1.53;0.97;;;;;;;;;;5033384;28;20194;-82
2023/08/29 01:17:13;;;;;;;1.00;1.00;;;;;;;;;;5033812;28;20213;-82
2023/08/29 01:19:42;;;;;;;0.40;0.40;;;;;;;;;;5033429;28;20209;-82
2023/08/29 01:22:23;;;;;;;0.40;0.40;;;;;;;;;;5033649;28;20206;-82
2023/08/29 01:24:55;;;;;;;0.40;0.40;;;;;;;;;;5033620;28;20213;-82
2023/08/29 01:27:26;;;;;;;0.40;0.40;;;;;;;;;;5033280;28;20209;-86
2023/08/29 01:29:55;;;;;;;2.60;2.40;;;;;;;;;;5033013;28;20284;-86
2023/08/29 01:32:24;;;;;;;0.40;0.40;;;;;;;;;;5033469;28;20264;-82
2023/08/29 01:34:53;;;;;;;0.47;0.47;;;;;;;;;;5033251;28;20218;-82
2023/08/29 01:37:22;;;;;;;0.60;0.60;;;;;;;;;;5033327;28;20234;-82
2023/08/29 01:39:50;;;;;;;0.87;0.70;;;;;;;;;;5032779;28;20238;-82
2023/08/29 01:42:19;;;;;;;0.50;0.50;;;;;;;;;;5033248;28;20206;-82
2023/08/29 01:44:48;;;;;;;0.40;0.40;;;;;;;;;;5032940;28;20198;-82
2023/08/29 01:47:17;;;;;;;0.50;0.50;;;;;;;;;;5032969;28;20214;-86
2023/08/29 01:49:46;;;;;;;0.47;0.47;;;;;;;;;;5033117;28;20206;-86
2023/08/29 01:52:14;;;;;;;0.50;0.50;;;;;;;;;;5032768;28;20198;-85
2023/08/29 01:54:43;;;;;;;0.40;0.40;;;;;;;;;;5032601;28;20304;-85
2023/08/29 01:57:12;;;;;;;0.40;0.40;;;;;;;;;;5032994;28;20280;-85
2023/08/29 01:59:41;;;;;;;0.60;0.60;;;;;;;;;;5032803;28;20201;-85
2023/08/29 02:02:10;;;;;;;0.40;0.40;;;;;;;;;;5033015;28;20212;-85
2023/08/29 02:04:39;;;;;;;0.40;0.40;;;;;;;;;;5032144;28;20213;-86
2023/08/29 02:07:07;;;;;;;0.90;0.90;;;;;;;;;;5032545;28;20205;-86
2023/08/29 02:09:36;;;;;;;0.40;0.40;;;;;;;;;;5032601;28;20214;-85
2023/08/29 02:12:05;;;;;;;0.50;0.50;;;;;;;;;;5032356;28;20209;-85
2023/08/29 02:14:33;;;;;;;1.43;0.83;;;;;;;;;;5032283;28;20202;-85
2023/08/29 02:17:03;;;;;;;0.57;0.57;;;;;;;;;;5032455;28;20223;-85
2023/08/29 02:19:33;;;;;;;0.40;0.40;;;;;;;;;;5032351;28;20215;-85
2023/08/29 02:22:01;;;;;;;1.87;1.43;;;;;;;;;;5031892;28;20205;-85
2023/08/29 02:24:30;;;;;;;0.70;0.70;;;;;;;;;;5032550;28;20205;-86
2023/08/29 02:26:59;;;;;;;0.40;0.40;;;;;;;;;;5032447;28;20204;-85
2023/08/29 02:29:27;;;;;;;0.77;0.77;;;;;;;;;;5031659;28;20199;-86
2023/08/29 02:31:56;;;;;;;1.07;1.07;;;;;;;;;;5032034;28;20205;-85
2023/08/29 02:34:25;;;;;;;2.37;2.17;;;;;;;;;;5032409;28;20214;-82
2023/08/29 02:36:55;;;;;;;15.20;2.50;;;;;;;;;;5032009;28;20225;-82
2023/08/29 02:39:24;;;;;;;1.03;1.03;;;;;;;;;;5031541;28;20305;-82
2023/08/29 02:41:52;;;;;;;1.07;1.07;;;;;;;;;;5032236;28;20272;-82
2023/08/29 02:44:20;;;;;;;0.40;0.40;;;;;;;;;;5032386;28;20202;-82
2023/08/29 02:46:49;;;;;;;0.80;0.80;;;;;;;;;;5032068;28;20202;-82
2023/08/29 02:49:17;;;;;;;0.70;0.70;;;;;;;;;;5031429;28;20215;-82
2023/08/29 02:51:46;;;;;;;2.80;2.23;;;;;;;;;;5032190;28;20203;-82
2023/08/29 02:54:18;;;;;;;3.07;2.40;;;;;;;;;;5032104;28;20213;-83
2023/08/29 02:56:46;;;;;;;2.03;1.03;;;;;;;;;;5031793;28;20379;-82
2023/08/29 02:59:14;;;;;;;1.30;1.20;;;;;;;;;;5031847;28;20204;-82
2023/08/29 03:01:43;;;;;;;1.27;1.20;;;;;;;;;;5031835;28;20202;-82
2023/08/29 03:04:14;;;;;;;0.87;0.87;;;;;;;;;;5031926;28;20210;-85
2023/08/29 03:06:43;;;;;;;0.60;0.60;;;;;;;;;;5031279;28;20190;-85
2023/08/29 03:09:11;;;;;;;5.80;0.87;;;;;;;;;;5032041;28;20213;-85
2023/08/29 03:11:41;;;;;;;0.80;0.80;;;;;;;;;;5031753;28;20260;-85
2023/08/29 03:14:09;;;;;;;2.97;0.60;;;;;;;;;;5031501;28;20206;-85
2023/08/29 03:16:38;;;;;;;0.50;0.50;;;;;;;;;;5030706;28;20251;-86
2023/08/29 03:19:06;;;;;;;1.17;1.17;;;;;;;;;;5032046;28;20222;-87
2023/08/29 03:21:35;;;;;;;0.40;0.40;;;;;;;;;;5032271;28;20425;-86
2023/08/29 03:24:05;;;;;;;1.83;1.73;;;;;;;;;;5030988;28;20256;-86
2023/08/29 03:26:34;;;;;;;0.40;0.40;;;;;;;;;;5031468;28;20203;-86
2023/08/29 03:29:04;;;;;;;0.40;0.40;;;;;;;;;;5031657;28;20210;-86
2023/08/29 03:31:32;;;;;;;0.40;0.40;;;;;;;;;;5031164;28;20301;-86
2023/08/29 03:34:02;;;;;;;1.80;0.77;;;;;;;;;;5031945;28;20202;-86
2023/08/29 03:36:30;;;;;;;0.40;0.40;;;;;;;;;;5031554;28;20253;-86
2023/08/29 03:38:59;;;;;;;0.80;0.80;;;;;;;;;;5031453;28;20226;-86
2023/08/29 03:41:27;;;;;;;0.60;0.60;;;;;;;;;;5031474;28;20213;-86
2023/08/29 03:43:56;;;;;;;0.60;0.60;;;;;;;;;;5032078;28;20209;-85
2023/08/29 03:46:25;;;;;;;0.40;0.40;;;;;;;;;;5031756;28;20207;-85
2023/08/29 03:48:54;;;;;;;0.40;0.40;;;;;;;;;;5031272;28;20203;-84
2023/08/29 03:51:22;;;;;;;1.17;1.07;;;;;;;;;;5030698;28;20297;-84
2023/08/29 03:53:51;;;;;;;1.43;0.50;;;;;;;;;;5031357;28;20203;-84
2023/08/29 03:56:19;;;;;;;0.50;0.50;;;;;;;;;;5031248;28;20218;-85
2023/08/29 03:58:49;;;;;;;0.80;0.80;;;;;;;;;;5031283;28;20206;-84
2023/08/29 04:01:19;;;;;;;0.60;0.60;;;;;;;;;;5031289;28;20224;-84
2023/08/29 04:03:49;;;;;;;0.70;0.70;;;;;;;;;;5031430;28;20202;-84
2023/08/29 04:06:21;;;;;;;0.80;0.80;;;;;;;;;;5031061;28;20197;-84
2023/08/29 04:08:50;;;;;;;0.40;0.40;;;;;;;;;;5030625;28;20202;-84
2023/08/29 04:11:18;;;;;;;0.50;0.50;;;;;;;;;;5031807;28;20215;-84
2023/08/29 04:13:46;;;;;;;0.47;0.47;;;;;;;;;;5031206;28;20209;-84
2023/08/29 04:16:15;;;;;;;0.57;0.57;;;;;;;;;;5030572;28;20203;-84
2023/08/29 04:18:43;;;;;;;1.50;1.43;;;;;;;;;;5030903;28;20202;-84
2023/08/29 04:21:13;;;;;;;0.53;0.53;;;;;;;;;;5031130;28;20202;-83
2023/08/29 04:23:42;;;;;;;0.60;0.60;;;;;;;;;;5031474;28;20209;-83
2023/08/29 04:26:11;;;;;;;3.40;1.83;;;;;;;;;;5030745;28;20200;-84
2023/08/29 04:28:39;;;;;;;3.10;2.30;;;;;;;;;;5031408;28;20263;-84
2023/08/29 04:31:08;;;;;;;0.97;0.97;;;;;;;;;;5034531;28;20231;-84
2023/08/29 04:33:36;;;;;;;0.40;0.40;;;;;;;;;;5035152;28;20202;-84
2023/08/29 04:36:05;;;;;;;0.97;0.87;;;;;;;;;;5034068;28;20214;-84
2023/08/29 04:38:35;;;;;;;0.50;0.50;;;;;;;;;;5034150;28;20237;-85
2023/08/29 04:41:04;;;;;;;1.47;1.37;;;;;;;;;;5034843;28;20211;-84
2023/08/29 04:43:32;;;;;;;0.40;0.40;;;;;;;;;;5034007;28;20198;-84
2023/08/29 04:46:01;;;;;;;0.40;0.40;;;;;;;;;;5034533;28;20195;-84
2023/08/29 04:48:29;;;;;;;0.90;0.90;;;;;;;;;;5034538;28;20200;-84
2023/08/29 04:50:58;;;;;;;0.40;0.40;;;;;;;;;;5034159;28;20214;-84
2023/08/29 04:53:27;;;;;;;2.20;2.13;;;;;;;;;;5033947;28;20207;-84
2023/08/29 04:56:01;;;;;;;0.40;0.40;;;;;;;;;;5034442;28;20206;-84
2023/08/29 04:58:30;;;;;;;0.40;0.40;;;;;;;;;;5033999;28;20242;-84
2023/08/29 05:00:58;;;;;;;0.90;0.90;;;;;;;;;;5034189;28;20214;-84
2023/08/29 05:03:27;;;;;;;0.80;0.80;;;;;;;;;;5034047;28;20217;-83
2023/08/29 05:05:57;;;;;;;1.13;1.03;;;;;;;;;;5034008;28;20205;-84
2023/08/29 05:08:26;;;;;;;2.00;1.90;;;;;;;;;;5034060;28;20202;-83
2023/08/29 05:10:54;;;;;;;0.80;0.80;;;;;;;;;;5034345;28;20245;-83
2023/08/29 05:13:24;;;;;;;0.40;0.40;;;;;;;;;;5033998;28;20209;-83
2023/08/29 05:15:52;;;;;;;0.40;0.40;;;;;;;;;;5034202;28;20206;-83
2023/08/29 05:18:21;;;;;;;0.80;0.80;;;;;;;;;;5033438;28;20248;-83
2023/08/29 05:20:49;;;;;;;0.40;0.40;;;;;;;;;;5033321;28;20206;-83
2023/08/29 05:23:18;;;;;;;0.40;0.40;;;;;;;;;;5034076;28;20280;-86
2023/08/29 05:25:47;;;;;;;0.63;0.63;;;;;;;;;;5035366;28;20224;-87
2023/08/29 05:28:15;;;;;;;0.40;0.40;;;;;;;;;;5035426;28;20285;-87
2023/08/29 05:30:45;;;;;;;0.40;0.40;;;;;;;;;;5035268;28;20200;-86
2023/08/29 05:33:14;;;;;;;0.40;0.40;;;;;;;;;;5035896;28;20213;-86
2023/08/29 05:35:42;;;;;;;0.40;0.40;;;;;;;;;;5034505;28;20194;-86
2023/08/29 05:38:11;;;;;;;1.33;1.23;;;;;;;;;;5034805;28;20218;-86
2023/08/29 05:40:39;;;;;;;0.80;0.63;;;;;;;;;;5033470;28;20246;-86
2023/08/29 05:43:07;;;;;;;0.70;0.70;;;;;;;;;;5034458;28;20201;-86
2023/08/29 05:45:36;;;;;;;0.93;0.93;;;;;;;;;;5034626;28;20206;-86
2023/08/29 05:48:06;;;;;;;4.50;3.57;;;;;;;;;;5033923;28;20199;-82
2023/08/29 05:50:35;;;;;;;7.30;4.50;;;;;;;;;;5033033;28;20207;-83
2023/08/29 05:53:04;;;;;;;0.40;0.40;;;;;;;;;;5032878;28;20209;-80
2023/08/29 05:55:33;;;;;;;0.40;0.40;;;;;;;;;;5032538;28;20206;-81
2023/08/29 05:58:01;;;;;;;2.50;2.30;;;;;;;;;;5032836;28;20246;-81
2023/08/29 06:00:30;;;;;;;0.60;0.60;;;;;;;;;;5032866;28;20213;-81
2023/08/29 06:03:00;;;;;;;0.50;0.50;;;;;;;;;;5032583;28;20209;-80
2023/08/29 06:05:31;;;;;;;3.60;2.70;;;;;;;;;;5032929;28;20210;-80
2023/08/29 06:08:01;;;;;;;3.77;3.43;;;;;;;;;;5032959;28;20207;-81
2023/08/29 06:10:47;;;;;;;3.60;2.80;;;;;;;;;;5032417;28;20194;-81
2023/08/29 06:13:16;;;;;;;0.73;0.73;;;;;;;;;;5031868;28;20202;-80
2023/08/29 06:15:45;;;;;;;4.40;3.17;;;;;;;;;;5033121;28;20208;-84
2023/08/29 06:18:13;;;;;;;2.87;2.67;;;;;;;;;;5034277;28;20232;-84
2023/08/29 06:20:46;;;;;;;5.70;2.77;;;;;;;;;;5033339;28;20255;-85
2023/08/29 06:23:14;;;;;;;2.07;1.90;;;;;;;;;;5033584;28;20210;-84
2023/08/29 06:25:44;;;;;;;3.07;2.30;;;;;;;;;;5032971;28;20206;-84
2023/08/29 06:28:12;;;;;;;1.63;1.53;;;;;;;;;;5033649;28;20199;-84
2023/08/29 06:30:41;;;;;;;5.57;2.50;;;;;;;;;;5032899;28;20232;-84
2023/08/29 06:33:12;;;;;;;1.77;1.57;;;;;;;;;;5033880;28;20210;-80
2023/08/29 06:35:40;;;;;;;2.53;1.97;;;;;;;;;;5032345;28;20195;-80
2023/08/29 06:38:10;;;;;;;3.10;2.10;;;;;;;;;;5032323;28;20267;-80
2023/08/29 06:40:39;;;;;;;2.17;1.80;;;;;;;;;;5031590;28;20325;-80
2023/08/29 06:43:07;;;;;;;1.60;1.50;;;;;;;;;;5032474;28;20287;-79
2023/08/29 06:45:36;;;;;;;4.70;3.30;;;;;;;;;;5032258;28;20234;-79
2023/08/29 06:48:05;;;;;;;1.03;0.80;;;;;;;;;;5031916;28;20206;-80
2023/08/29 06:50:34;;;;;;;0.60;0.60;;;;;;;;;;5032086;28;20206;-80
2023/08/29 06:53:03;;;;;;;1.00;1.00;;;;;;;;;;5031073;28;20298;-80
2023/08/29 06:55:34;;;;;;;1.60;1.37;;;;;;;;;;5031635;28;20219;-80
2023/08/29 06:58:02;;;;;;;0.80;0.80;;;;;;;;;;5031711;28;20286;-80
2023/08/29 07:00:31;;;;;;;1.00;1.00;;;;;;;;;;5031973;28;20218;-80
2023/08/29 07:02:59;;;;;;;0.80;0.80;;;;;;;;;;5032121;28;20230;-80
2023/08/29 07:05:28;;;;;;;0.97;0.87;;;;;;;;;;5031464;28;20228;-80
2023/08/29 07:07:58;;;;;;;1.07;1.07;;;;;;;;;;5032170;28;20199;-80
2023/08/29 07:10:26;;;;;;;0.60;0.60;;;;;;;;;;5031497;28;20207;-80
2023/08/29 07:12:56;;;;;;;1.53;1.43;;;;;;;;;;5031884;28;20203;-80
2023/08/29 07:15:25;;;;;;;0.30;0.30;;;;;;;;;;5031661;28;20202;-80
2023/08/29 07:17:54;;;;;;;0.60;0.60;;;;;;;;;;5031415;28;20284;-80
2023/08/29 07:20:22;;;;;;;2.03;1.07;;;;;;;;;;5031425;28;20297;-80
2023/08/29 07:22:50;;;;;;;0.60;0.60;;;;;;;;;;5031019;28;20196;-80
2023/08/29 07:25:19;;;;;;;0.60;0.60;;;;;;;;;;5031713;28;20199;-80
2023/08/29 07:27:48;;;;;;;1.00;1.00;;;;;;;;;;5031714;28;20302;-80
2023/08/29 07:30:18;;;;;;;3.33;2.10;;;;;;;;;;5031713;28;20203;-80
2023/08/29 07:32:46;;;;;;;2.37;1.63;;;;;;;;;;5031025;28;20314;-81
2023/08/29 07:35:16;;;;;;;0.50;0.50;;;;;;;;;;5032086;28;20260;-80
2023/08/29 07:37:44;;;;;;;1.13;1.13;;;;;;;;;;5031569;28;20242;-80
2023/08/29 07:40:14;;;;;;;1.10;0.53;;;;;;;;;;5030933;28;20231;-81
2023/08/29 07:42:42;;;;;;;1.00;0.90;;;;;;;;;;5031343;28;20278;-80
2023/08/29 07:45:11;;;;;;;1.67;1.57;;;;;;;;;;5031694;28;20209;-80
2023/08/29 07:47:41;;;;;;;0.63;0.63;;;;;;;;;;5031499;28;20211;-80
2023/08/29 07:50:10;;;;;;;0.77;0.70;;;;;;;;;;5030662;28;20256;-80
2023/08/29 07:52:38;;;;;;;0.80;0.80;;;;;;;;;;5031705;28;20238;-80
2023/08/29 07:55:10;;;;;;;1.00;1.00;;;;;;;;;;5031871;28;20222;-80
2023/08/29 07:57:38;;;;;;;3.63;1.93;;;;;;;;;;5030887;28;20204;-80
2023/08/29 08:00:10;;;;;;;1.77;1.40;;;;;;;;;;5031142;28;20218;-80
2023/08/29 08:02:39;;;;;;;2.17;1.40;;;;;;;;;;5031567;28;20212;-80
2023/08/29 08:05:10;;;;;;;1.10;1.00;;;;;;;;;;5035061;28;20214;-81
2023/08/29 08:07:39;;;;;;;0.70;0.70;;;;;;;;;;5034744;28;20219;-80
2023/08/29 08:10:08;;;;;;;1.80;1.43;;;;;;;;;;5034826;28;20197;-80
2023/08/29 08:12:38;;;;;;;0.93;0.93;;;;;;;;;;5035114;28;20233;-80
2023/08/29 08:15:07;;;;;;;2.37;0.60;;;;;;;;;;5034763;28;20224;-80
2023/08/29 08:17:36;;;;;;;0.50;0.50;;;;;;;;;;5034827;28;20294;-80
2023/08/29 08:20:07;;;;;;;0.70;0.70;;;;;;;;;;5034480;28;20214;-79
2023/08/29 08:22:38;;;;;;;0.80;0.70;;;;;;;;;;5034806;28;20215;-80
2023/08/29 08:25:07;;;;;;;0.80;0.80;;;;;;;;;;5034269;28;20274;-80
2023/08/29 08:27:36;;;;;;;0.30;0.30;;;;;;;;;;5034741;28;20212;-81
2023/08/29 08:30:07;;;;;;;0.30;0.30;;;;;;;;;;5034797;28;20211;-81
2023/08/29 08:32:36;;;;;;;6.10;1.00;;;;;;;;;;5034568;28;20211;-80
2023/08/29 08:35:05;;;;;;;0.30;0.30;;;;;;;;;;5034293;28;20234;-79
2023/08/29 08:37:35;;;;;;;0.70;0.70;;;;;;;;;;5034724;28;20228;-80
2023/08/29 08:40:09;;;;;;;0.40;0.40;;;;;;;;;;5034252;28;20237;-80
2023/08/29 08:42:40;;;;;;;0.80;0.80;;;;;;;;;;5034202;28;20206;-80
2023/08/29 08:45:10;;;;;;;0.57;0.57;;;;;;;;;;5034311;28;20201;-80
2023/08/29 08:47:40;;;;;;;1.20;1.20;;;;;;;;;;5034815;28;20205;-80
2023/08/29 08:50:09;;;;;;;0.50;0.50;;;;;;;;;;5033981;28;20209;-80
2023/08/29 08:52:40;;;;;;;0.30;0.30;;;;;;;;;;5034026;28;20210;-80
2023/08/29 08:55:10;;;;;;;0.33;0.33;;;;;;;;;;5034521;28;20214;-80
2023/08/29 08:57:39;;;;;;;0.87;0.87;;;;;;;;;;5034251;28;20216;-80
2023/08/29 09:00:08;;;;;;;0.30;0.30;;;;;;;;;;5034032;28;20219;-80
2023/08/29 09:02:37;;;;;;;2.10;0.83;;;;;;;;;;5033702;28;20235;-81
2023/08/29 09:05:06;;;;;;;0.73;0.73;;;;;;;;;;5034187;28;20201;-81
2023/08/29 09:07:39;;;;;;;0.50;0.50;;;;;;;;;;5034013;28;20241;-80
2023/08/29 09:10:09;;;;;;;0.57;0.57;;;;;;;;;;5033574;28;20197;-81
2023/08/29 09:12:46;;;;;;;0.30;0.30;;;;;;;;;;5033923;28;20278;-81
2023/08/29 09:15:16;;;;;;;0.30;0.30;;;;;;;;;;5033057;28;20205;-80
2023/08/29 09:17:48;;;;;;;0.60;0.60;;;;;;;;;;5033864;28;20203;-80
2023/08/29 09:20:16;;;;;;;0.70;0.70;;;;;;;;;;5033716;28;20219;-80
2023/08/29 09:22:45;;;;;;;0.67;0.60;;;;;;;;;;5033878;28;20208;-80
2023/08/29 09:25:14;;;;;;;2.23;2.13;;;;;;;;;;5033742;28;20205;-82
2023/08/29 09:27:45;;;;;;;0.53;0.53;;;;;;;;;;5033311;28;20206;-81
2023/08/29 09:30:15;;;;;;;0.50;0.50;;;;;;;;;;5033686;28;20302;-80
2023/08/29 09:32:44;;;;;;;1.03;0.73;;;;;;;;;;5033573;28;20194;-80
2023/08/29 09:35:14;;;;;;;6.23;0.50;;;;;;;;;;5033307;28;20210;-81
2023/08/29 09:37:45;;;;;;;0.40;0.40;;;;;;;;;;5032684;28;20222;-80
2023/08/29 09:40:17;;;;;;;0.43;0.43;;;;;;;;;;5032488;28;20242;-81
2023/08/29 09:43:06;;;;;;;0.30;0.30;;;;;;;;;;5032811;28;20230;-81
2023/08/29 09:45:37;;;;;;;4.40;1.53;;;;;;;;;;5032651;28;20201;-80
2023/08/29 09:48:07;;;;;;;0.93;0.60;;;;;;;;;;5033412;28;20301;-81
2023/08/29 09:50:38;;;;;;;0.50;0.50;;;;;;;;;;5033207;28;20223;-80
2023/08/29 09:53:06;;;;;;;1.13;1.10;;;;;;;;;;5032936;28;20207;-80
2023/08/29 09:55:38;;;;;;;0.70;0.70;;;;;;;;;;5032593;28;20202;-80
2023/08/29 09:58:09;;;;;;;1.40;0.50;;;;;;;;;;5032947;28;20212;-80
2023/08/29 10:00:38;;;;;;;2.80;0.90;;;;;;;;;;5033359;28;20242;-80
2023/08/29 10:03:08;;;;;;;2.00;1.20;;;;;;;;;;5032890;28;20207;-80
2023/08/29 10:05:38;;;;;;;5.17;1.60;;;;;;;;;;5032887;28;20211;-81
2023/08/29 10:08:10;;;;;;;1.00;1.00;;;;;;;;;;5033043;28;20277;-81
2023/08/29 10:10:39;;;;;;;0.70;0.70;;;;;;;;;;5032526;28;20229;-81
2023/08/29 10:13:09;;;;;;;0.70;0.70;;;;;;;;;;5032638;28;20216;-80
2023/08/29 10:15:38;;;;;;;0.67;0.67;;;;;;;;;;5032734;28;20227;-80
2023/08/29 10:18:07;;;;;;;1.07;1.03;;;;;;;;;;5032468;28;20207;-80
2023/08/29 10:20:37;;;;;;;1.37;1.17;;;;;;;;;;5031738;28;20224;-80
2023/08/29 10:23:07;;;;;;;1.20;1.10;;;;;;;;;;5032631;28;20261;-80
2023/08/29 10:25:38;;;;;;;0.97;0.97;;;;;;;;;;5032522;28;20202;-80
2023/08/29 10:28:10;;;;;;;1.23;1.17;;;;;;;;;;5032651;28;20202;-80
2023/08/29 10:30:39;;;;;;;0.97;0.97;;;;;;;;;;5032006;28;20199;-80
2023/08/29 10:33:08;;;;;;;1.87;1.27;;;;;;;;;;5032399;28;20204;-81
2023/08/29 10:35:37;;;;;;;1.93;1.37;;;;;;;;;;5032635;28;20252;-81
2023/08/29 10:38:08;;;;;;;0.33;0.33;;;;;;;;;;5032111;28;20276;-80
2023/08/29 10:40:42;;;;;;;1.20;1.10;;;;;;;;;;5032087;28;20231;-80
2023/08/29 10:43:19;;;;;;;1.10;1.10;;;;;;;;;;5032589;28;20201;-80
2023/08/29 10:45:51;;;;;;;0.70;0.70;;;;;;;;;;5032198;28;20222;-81
2023/08/29 10:48:20;;;;;;;0.40;0.40;;;;;;;;;;5031667;28;20207;-80
2023/08/29 10:50:50;;;;;;;0.53;0.53;;;;;;;;;;5032230;28;20203;-81
2023/08/29 10:53:19;;;;;;;1.37;1.27;;;;;;;;;;5032609;28;20202;-85
2023/08/29 10:56:03;;;;;;;0.93;0.93;;;;;;;;;;5032929;28;20209;-85
2023/08/29 10:58:39;;;;;;;0.50;0.50;;;;;;;;;;5016136;28;20244;-85
2023/08/29 11:01:08;;;;;;;0.40;0.40;;;;;;;;;;5033870;28;20214;-85
2023/08/29 11:03:48;;;;;;;1.87;1.53;;;;;;;;;;5033178;28;20209;-85
2023/08/29 11:06:17;;;;;;;2.23;1.23;;;;;;;;;;5033793;28;20200;-84
2023/08/29 11:08:45;;;;;;;0.70;0.70;;;;;;;;;;5032201;28;20423;-80
2023/08/29 11:11:15;;;;;;;0.57;0.57;;;;;;;;;;5031692;28;20204;-82
2023/08/29 11:13:56;;;;;;;0.70;0.70;;;;;;;;;;5031870;28;20208;-80
2023/08/29 11:16:24;;;;;;;0.50;0.50;;;;;;;;;;5031589;28;20259;-80
2023/08/29 11:19:00;;;;;;;0.70;0.70;;;;;;;;;;5031819;28;20212;-80
2023/08/29 11:21:30;;;;;;;0.80;0.80;;;;;;;;;;5031349;28;20223;-80
2023/08/29 11:23:59;;;;;;;0.93;0.93;;;;;;;;;;5031595;28;20207;-80
2023/08/29 11:26:46;;;;;;;0.30;0.30;;;;;;;;;;5032073;28;20298;-81
2023/08/29 11:29:16;;;;;;;0.90;0.90;;;;;;;;;;5031990;28;20261;-81
2023/08/29 11:31:45;;;;;;;2.40;1.00;;;;;;;;;;5030868;28;20205;-81
2023/08/29 11:34:14;;;;;;;0.70;0.70;;;;;;;;;;5031770;28;20233;-81
2023/08/29 11:36:45;;;;;;;0.83;0.83;;;;;;;;;;5031500;28;20215;-81
2023/08/29 11:39:13;;;;;;;0.50;0.50;;;;;;;;;;5033989;28;20243;-81
2023/08/29 11:41:43;;;;;;;1.23;1.13;;;;;;;;;;5035500;28;20250;-81
2023/08/29 11:44:34;;;;;;;0.90;0.90;;;;;;;;;;5035629;28;20205;-80
2023/08/29 11:47:23;;;;;;;0.77;0.77;;;;;;;;;;5035364;28;20203;-80
2023/08/29 11:49:52;;;;;;;0.93;0.90;;;;;;;;;;5035264;28;20221;-81
2023/08/29 11:52:21;;;;;;;0.57;0.57;;;;;;;;;;5035690;28;20195;-80
2023/08/29 11:54:52;;;;;;;0.80;0.80;;;;;;;;;;5035608;28;20203;-80
2023/08/29 11:57:21;;;;;;;1.53;1.30;;;;;;;;;;5035109;28;20297;-81
2023/08/29 11:59:52;;;;;;;2.07;1.13;;;;;;;;;;5035171;28;20199;-81
2023/08/29 12:02:21;;;;;;;0.83;0.83;;;;;;;;;;5035529;28;20220;-81
2023/08/29 12:04:55;;;;;;;0.80;0.80;;;;;;;;;;5035555;28;20242;-81
2023/08/29 12:07:24;;;;;;;0.47;0.47;;;;;;;;;;5035229;28;20215;-80
2023/08/29 12:09:54;;;;;;;1.57;1.47;;;;;;;;;;5035212;28;20286;-80
2023/08/29 12:12:29;;;;;;;0.97;0.83;;;;;;;;;;5035258;28;20214;-81
2023/08/29 12:15:00;;;;;;;0.90;0.90;;;;;;;;;;5035422;28;20212;-80
2023/08/29 12:17:38;;;;;;;0.70;0.70;;;;;;;;;;5035291;28;20205;-81
2023/08/29 12:20:25;;;;;;;0.40;0.40;;;;;;;;;;5035033;28;20322;-80
2023/08/29 12:22:55;;;;;;;0.77;0.60;;;;;;;;;;5034983;28;20201;-81
2023/08/29 12:25:24;;;;;;;1.37;0.63;;;;;;;;;;5034448;28;20236;-80
2023/08/29 12:27:52;;;;;;;2.30;2.10;;;;;;;;;;5035319;28;20205;-80
2023/08/29 12:30:22;;;;;;;0.40;0.40;;;;;;;;;;5035031;28;20208;-80
2023/08/29 12:32:51;;;;;;;2.60;0.80;;;;;;;;;;5034483;28;20296;-81
2023/08/29 12:35:20;;;;;;;0.60;0.60;;;;;;;;;;5034217;28;20197;-80
2023/08/29 12:37:57;;;;;;;0.97;0.60;;;;;;;;;;5034700;28;20227;-80
2023/08/29 12:40:26;;;;;;;0.50;0.50;;;;;;;;;;5034117;28;20237;-80
2023/08/29 12:42:56;;;;;;;0.63;0.63;;;;;;;;;;5034131;28;20228;-80
2023/08/29 12:45:25;;;;;;;0.87;0.87;;;;;;;;;;5034307;28;20205;-81
2023/08/29 12:47:54;;;;;;;0.60;0.60;;;;;;;;;;5034831;28;20210;-80
2023/08/29 12:50:23;;;;;;;0.50;0.40;;;;;;;;;;5032889;28;20267;-80
2023/08/29 12:52:51;;;;;;;3.90;1.37;;;;;;;;;;5034155;28;20206;-81
2023/08/29 12:55:20;;;;;;;1.43;0.83;;;;;;;;;;5034494;28;20204;-81
2023/08/29 12:57:49;;;;;;;1.03;0.90;;;;;;;;;;5034676;28;20206;-80
2023/08/29 13:00:19;;;;;;;1.03;1.03;;;;;;;;;;5033825;28;20212;-82
2023/08/29 13:02:49;;;;;;;1.60;1.10;;;;;;;;;;5034490;28;20224;-80
2023/08/29 13:05:18;;;;;;;4.87;1.67;;;;;;;;;;5034395;28;20306;-81
2023/08/29 13:07:46;;;;;;;4.80;0.90;;;;;;;;;;5034171;28;20299;-80
2023/08/29 13:10:16;;;;;;;1.07;0.80;;;;;;;;;;5033411;28;20208;-80
2023/08/29 13:12:45;;;;;;;1.50;1.03;;;;;;;;;;5040866;28;20239;-85
2023/08/29 13:15:16;;;;;;;0.70;0.70;;;;;;;;;;5045961;28;20201;-85
2023/08/29 13:17:45;;;;;;;2.63;1.63;;;;;;;;;;5046193;28;20189;-86
2023/08/29 13:20:16;;;;;;;0.90;0.90;;;;;;;;;;5045866;28;20278;-85
2023/08/29 13:22:46;;;;;;;3.67;1.57;;;;;;;;;;5045181;28;20230;-85
2023/08/29 13:25:19;;;;;;;1.93;1.13;;;;;;;;;;5045701;28;20204;-86
2023/08/29 13:27:49;;;;;;;3.07;1.20;;;;;;;;;;5045674;28;20442;-87
2023/08/29 13:30:18;;;;;;;2.33;1.17;;;;;;;;;;5045874;28;20262;-87
2023/08/29 13:32:48;;;;;;;0.70;0.70;;;;;;;;;;5044430;28;20200;-86
2023/08/29 13:35:18;;;;;;;1.50;1.00;;;;;;;;;;5039604;28;20293;-86
2023/08/29 13:37:47;;;;;;;0.90;0.90;;;;;;;;;;5041186;28;20248;-86
2023/08/29 13:40:16;;;;;;;0.93;0.93;;;;;;;;;;5041019;28;20242;-86
2023/08/29 13:42:45;;;;;;;1.57;1.47;;;;;;;;;;5041601;28;20220;-86
2023/08/29 13:45:14;;;;;;;2.57;1.20;;;;;;;;;;5043326;28;20299;-86
2023/08/29 13:47:42;;;;;;;1.97;1.37;;;;;;;;;;5041454;28;20195;-86
2023/08/29 13:50:11;;;;;;;3.20;1.10;;;;;;;;;;5041115;28;20208;-86
2023/08/29 13:52:41;;;;;;;2.93;1.60;;;;;;;;;;5040808;28;20207;-86
2023/08/29 13:55:10;;;;;;;1.70;0.60;;;;;;;;;;5039223;28;20205;-84
2023/08/29 13:57:38;;;;;;;0.97;0.90;;;;;;;;;;5034124;28;20285;-80
2023/08/29 14:00:07;;;;;;;0.83;0.83;;;;;;;;;;5033189;28;20209;-80
2023/08/29 14:02:37;;;;;;;0.77;0.77;;;;;;;;;;5032491;28;20223;-80
2023/08/29 14:05:06;;;;;;;1.43;1.23;;;;;;;;;;5033610;28;20210;-81
2023/08/29 14:07:35;;;;;;;3.03;1.23;;;;;;;;;;5033228;28;20267;-80
2023/08/29 14:10:05;;;;;;;1.87;1.50;;;;;;;;;;5032868;28;20255;-80
2023/08/29 14:12:34;;;;;;;1.30;0.67;;;;;;;;;;5032518;28;20225;-81
2023/08/29 14:15:02;;;;;;;0.67;0.67;;;;;;;;;;5038034;28;20216;-80
2023/08/29 14:17:31;;;;;;;2.97;0.93;;;;;;;;;;5033033;28;20231;-80
2023/08/29 14:20:04;;;;;;;0.97;0.57;;;;;;;;;;5032842;28;20213;-80
2023/08/29 14:22:33;;;;;;;1.47;1.20;;;;;;;;;;5033063;28;20242;-80
2023/08/29 14:25:02;;;;;;;1.83;1.17;;;;;;;;;;5031828;28;20211;-80
2023/08/29 14:27:32;;;;;;;1.63;1.30;;;;;;;;;;5032672;28;20199;-80
2023/08/29 14:30:01;;;;;;;1.43;0.73;;;;;;;;;;5032312;28;20218;-80
2023/08/29 14:32:29;;;;;;;0.67;0.67;;;;;;;;;;5032261;28;20201;-80
2023/08/29 14:34:58;;;;;;;1.97;1.40;;;;;;;;;;5032530;28;20251;-80
2023/08/29 14:37:27;;;;;;;3.87;1.20;;;;;;;;;;5031887;28;20221;-79
2023/08/29 14:39:55;;;;;;;2.13;1.23;;;;;;;;;;5031987;28;20232;-80
2023/08/29 14:42:23;;;;;;;2.00;1.80;;;;;;;;;;5032076;28;20225;-80
2023/08/29 14:44:53;;;;;;;1.57;1.43;;;;;;;;;;5032125;28;20205;-79
2023/08/29 14:47:22;;;;;;;0.90;0.90;;;;;;;;;;5032225;28;20279;-81
2023/08/29 14:49:50;;;;;;;1.03;0.93;;;;;;;;;;5032391;28;20200;-81
2023/08/29 14:52:21;;;;;;;0.97;0.90;;;;;;;;;;5032004;28;20226;-81
2023/08/29 14:54:52;;;;;;;2.53;1.33;;;;;;;;;;5032007;28;20209;-81
2023/08/29 14:57:22;;;;;;;1.73;1.10;;;;;;;;;;5031965;28;20229;-81